Time;durP1;ratioP1;P1;durP2;ratioP2;P2;SDS_P1;SDS_P2;PMS_P1;PMS_P2;Temp;Humidity;BMP_temperature;BMP_pressure;BME280_temperature;BME280_humidity;BME280_pressure;Samples;Min_cycle;Max_cycle;Signal;HPM_P1;HPM_P2
2022/06/16 00:00:59;;;;;;;4.10;3.15;;;;;;;;;;1739533;82;21572;-65
2022/06/16 00:03:25;;;;;;;9.70;3.40;;;;;;;;;;1739541;82;21006;-65
2022/06/16 00:05:53;;;;;;;6.53;3.25;;;;;;;;;;1738687;81;21029;-65
2022/06/16 00:08:19;;;;;;;5.92;3.00;;;;;;;;;;1728958;82;21055;-65
2022/06/16 00:13:32;;;;;;;9.30;3.92;;;;;;;;;;1645666;86;21087;-64
2022/06/16 00:15:58;;;;;;;5.47;3.08;;;;;;;;;;1719303;81;21065;-64
2022/06/16 00:18:25;;;;;;;5.20;2.98;;;;;;;;;;1737612;82;20985;-63
2022/06/16 00:20:50;;;;;;;4.95;3.20;;;;;;;;;;1738411;81;20997;-63
2022/06/16 00:23:17;;;;;;;4.62;3.08;;;;;;;;;;1729944;82;21081;-63
2022/06/16 00:25:43;;;;;;;5.60;3.37;;;;;;;;;;1738534;81;21537;-64
2022/06/16 00:28:09;;;;;;;7.08;3.17;;;;;;;;;;1712351;81;21548;-65
2022/06/16 00:30:36;;;;;;;6.28;3.75;;;;;;;;;;1699538;82;21141;-64
2022/06/16 00:33:04;;;;;;;5.25;3.17;;;;;;;;;;1715756;81;21523;-65
2022/06/16 00:35:30;;;;;;;5.20;3.02;;;;;;;;;;1729171;81;21104;-64
2022/06/16 00:37:56;;;;;;;6.67;3.27;;;;;;;;;;1722615;82;21539;-64
2022/06/16 00:40:23;;;;;;;5.47;3.20;;;;;;;;;;1739536;82;21045;-64
2022/06/16 00:42:49;;;;;;;5.05;2.83;;;;;;;;;;1740785;81;21086;-65
2022/06/16 00:45:34;;;;;;;6.17;3.05;;;;;;;;;;1719383;82;21063;-65
2022/06/16 00:48:00;;;;;;;4.70;2.80;;;;;;;;;;1711863;82;21097;-65
2022/06/16 00:50:26;;;;;;;5.72;2.62;;;;;;;;;;1737343;82;21054;-65
2022/06/16 00:52:52;;;;;;;6.22;3.25;;;;;;;;;;1722757;81;21584;-65
2022/06/16 00:55:18;;;;;;;4.83;2.42;;;;;;;;;;1734162;81;21502;-65
2022/06/16 00:57:47;;;;;;;7.35;3.05;;;;;;;;;;1721257;81;21093;-65
2022/06/16 01:00:16;;;;;;;6.28;2.80;;;;;;;;;;1738106;82;21505;-65
2022/06/16 01:05:26;;;;;;;6.37;2.80;;;;;;;;;;1739279;81;21574;-64
2022/06/16 01:07:52;;;;;;;5.47;3.08;;;;;;;;;;1720427;83;21087;-64
2022/06/16 01:10:20;;;;;;;5.78;2.72;;;;;;;;;;1751770;80;21052;-64
2022/06/16 01:16:10;;;;;;;4.33;2.77;;;;;;;;;;1804549;79;20989;-64
2022/06/16 01:18:41;;;;;;;6.90;3.10;;;;;;;;;;1787116;79;21141;-64
2022/06/16 01:21:15;;;;;;;5.60;2.80;;;;;;;;;;1773005;81;21089;-65
2022/06/16 01:24:02;;;;;;;7.62;3.50;;;;;;;;;;1763413;79;21032;-64
2022/06/16 01:26:43;;;;;;;5.10;3.02;;;;;;;;;;1721418;83;21110;-65
2022/06/16 01:29:17;;;;;;;7.42;3.52;;;;;;;;;;1739933;81;20999;-64
2022/06/16 01:31:50;;;;;;;6.05;3.30;;;;;;;;;;1721943;82;21040;-65
2022/06/16 01:34:33;;;;;;;8.25;3.52;;;;;;;;;;1682458;84;21055;-65
2022/06/16 01:37:05;;;;;;;8.40;3.47;;;;;;;;;;1767459;79;21025;-64
2022/06/16 01:39:33;;;;;;;7.60;3.60;;;;;;;;;;1710775;84;21061;-65
2022/06/16 01:42:01;;;;;;;7.05;3.35;;;;;;;;;;1653015;84;22041;-65
2022/06/16 01:44:29;;;;;;;6.92;3.40;;;;;;;;;;1783032;79;21031;-64
2022/06/16 01:46:56;;;;;;;6.60;3.55;;;;;;;;;;1795871;79;21028;-65
2022/06/16 01:49:26;;;;;;;6.75;3.90;;;;;;;;;;1765016;79;21524;-64
2022/06/16 01:51:55;;;;;;;6.10;4.17;;;;;;;;;;1768302;79;21127;-64
2022/06/16 01:54:23;;;;;;;8.43;4.47;;;;;;;;;;1767259;80;21068;-65
2022/06/16 01:56:51;;;;;;;9.05;4.58;;;;;;;;;;1784961;79;21502;-65
2022/06/16 01:59:19;;;;;;;11.48;4.85;;;;;;;;;;1725226;82;21074;-65
2022/06/16 02:01:46;;;;;;;11.78;5.03;;;;;;;;;;1709076;84;21515;-65
2022/06/16 02:04:15;;;;;;;12.35;5.65;;;;;;;;;;1718953;82;21045;-65
2022/06/16 02:06:42;;;;;;;10.43;5.17;;;;;;;;;;1713924;83;21023;-64
2022/06/16 02:09:11;;;;;;;9.68;4.45;;;;;;;;;;1691760;85;21084;-65
2022/06/16 02:11:41;;;;;;;9.78;4.75;;;;;;;;;;1691497;84;21060;-64
2022/06/16 02:14:11;;;;;;;8.05;4.50;;;;;;;;;;1706812;83;21571;-64
2022/06/16 02:16:37;;;;;;;12.05;4.92;;;;;;;;;;1705869;83;21561;-65
2022/06/16 02:19:07;;;;;;;9.80;4.40;;;;;;;;;;1691940;85;21080;-65
2022/06/16 02:21:38;;;;;;;8.23;4.03;;;;;;;;;;1691877;85;21013;-65
2022/06/16 02:24:08;;;;;;;7.53;4.33;;;;;;;;;;1718756;83;21024;-65
2022/06/16 02:26:35;;;;;;;10.53;4.28;;;;;;;;;;1713817;83;21044;-64
2022/06/16 02:29:03;;;;;;;10.63;4.67;;;;;;;;;;1689921;85;21033;-64
2022/06/16 02:31:36;;;;;;;7.17;4.17;;;;;;;;;;1670318;85;21603;-63
2022/06/16 02:34:21;;;;;;;7.87;4.08;;;;;;;;;;1711218;83;21044;-66
2022/06/16 02:37:05;;;;;;;8.50;3.95;;;;;;;;;;1707022;83;21018;-65
2022/06/16 02:39:35;;;;;;;6.17;3.58;;;;;;;;;;1687898;85;21074;-66
2022/06/16 02:42:03;;;;;;;8.75;3.37;;;;;;;;;;1688183;83;21074;-63
2022/06/16 02:44:32;;;;;;;5.75;3.08;;;;;;;;;;1665389;86;21083;-64
2022/06/16 02:47:03;;;;;;;5.83;3.70;;;;;;;;;;1687338;83;21091;-64
2022/06/16 02:49:37;;;;;;;6.15;3.20;;;;;;;;;;1721977;83;21032;-64
2022/06/16 02:52:06;;;;;;;5.75;3.05;;;;;;;;;;1720904;83;21597;-64
2022/06/16 02:54:37;;;;;;;7.08;3.52;;;;;;;;;;1717263;83;21053;-64
2022/06/16 02:57:10;;;;;;;3.72;2.83;;;;;;;;;;1697847;83;21110;-64
2022/06/16 02:59:57;;;;;;;5.15;2.83;;;;;;;;;;1716172;83;21102;-64
2022/06/16 03:02:24;;;;;;;6.72;3.80;;;;;;;;;;1692087;83;21631;-64
2022/06/16 03:04:52;;;;;;;7.40;4.20;;;;;;;;;;1691237;83;21117;-64
2022/06/16 03:07:19;;;;;;;9.65;4.42;;;;;;;;;;1705161;83;21098;-65
2022/06/16 03:09:48;;;;;;;10.00;4.97;;;;;;;;;;1737955;82;22109;-64
2022/06/16 03:12:15;;;;;;;12.37;4.55;;;;;;;;;;1762488;80;21011;-64
2022/06/16 03:14:42;;;;;;;7.00;4.10;;;;;;;;;;1730606;82;21543;-64
2022/06/16 03:17:11;;;;;;;6.53;3.77;;;;;;;;;;1754590;80;21039;-65
2022/06/16 03:19:37;;;;;;;6.05;3.60;;;;;;;;;;1749812;82;21035;-64
2022/06/16 03:22:05;;;;;;;5.47;3.25;;;;;;;;;;1772111;80;21066;-64
2022/06/16 03:24:32;;;;;;;5.53;2.90;;;;;;;;;;1782214;80;21035;-64
2022/06/16 03:26:59;;;;;;;4.90;3.08;;;;;;;;;;1752535;80;21724;-64
2022/06/16 03:29:26;;;;;;;4.60;3.02;;;;;;;;;;1749591;82;21031;-64
2022/06/16 03:31:53;;;;;;;6.33;3.27;;;;;;;;;;1769664;80;20991;-64
2022/06/16 03:34:22;;;;;;;6.37;3.30;;;;;;;;;;1781893;80;21058;-64
2022/06/16 03:36:50;;;;;;;4.40;3.25;;;;;;;;;;1746217;80;20998;-66
2022/06/16 03:39:17;;;;;;;4.60;3.02;;;;;;;;;;1736792;82;22057;-66
2022/06/16 03:41:45;;;;;;;4.65;2.90;;;;;;;;;;1765944;80;21043;-65
2022/06/16 03:44:11;;;;;;;4.25;3.08;;;;;;;;;;1782031;80;21063;-66
2022/06/16 03:46:38;;;;;;;4.20;3.15;;;;;;;;;;1779230;80;21047;-65
2022/06/16 03:49:06;;;;;;;4.00;2.87;;;;;;;;;;1730347;82;21072;-64
2022/06/16 03:51:34;;;;;;;4.42;3.00;;;;;;;;;;1756372;80;21551;-64
2022/06/16 03:54:01;;;;;;;4.50;2.60;;;;;;;;;;1757069;80;20995;-65
2022/06/16 03:56:28;;;;;;;7.62;2.90;;;;;;;;;;1766926;80;21023;-65
2022/06/16 03:58:54;;;;;;;5.12;3.00;;;;;;;;;;1749822;82;21023;-64
2022/06/16 04:01:22;;;;;;;5.28;2.70;;;;;;;;;;1761209;80;21066;-66
2022/06/16 04:04:02;;;;;;;7.22;3.00;;;;;;;;;;1781441;79;21051;-65
2022/06/16 04:06:32;;;;;;;4.58;3.02;;;;;;;;;;1766774;80;21619;-64
2022/06/16 04:08:58;;;;;;;4.53;2.98;;;;;;;;;;1740408;82;21467;-64
2022/06/16 04:11:28;;;;;;;5.35;3.20;;;;;;;;;;1753560;80;20941;-65
2022/06/16 04:14:00;;;;;;;4.55;3.00;;;;;;;;;;1761778;81;21036;-65
2022/06/16 04:16:26;;;;;;;4.17;2.92;;;;;;;;;;1745934;80;20984;-65
2022/06/16 04:18:52;;;;;;;4.60;2.87;;;;;;;;;;1730501;83;21009;-64
2022/06/16 04:21:19;;;;;;;4.37;3.00;;;;;;;;;;1747098;80;21065;-65
2022/06/16 04:23:47;;;;;;;5.70;3.00;;;;;;;;;;1746058;80;21019;-65
2022/06/16 04:26:14;;;;;;;5.47;2.90;;;;;;;;;;1737470;80;20996;-65
2022/06/16 04:28:43;;;;;;;4.28;2.77;;;;;;;;;;1730197;82;21088;-65
2022/06/16 04:31:10;;;;;;;4.65;2.65;;;;;;;;;;1742662;80;21562;-64
2022/06/16 04:33:37;;;;;;;3.92;2.83;;;;;;;;;;1751089;80;20972;-65
2022/06/16 04:36:06;;;;;;;5.20;3.12;;;;;;;;;;1744310;80;21097;-64
2022/06/16 04:38:34;;;;;;;8.40;2.72;;;;;;;;;;1730506;82;21028;-64
2022/06/16 04:41:00;;;;;;;4.97;2.70;;;;;;;;;;1748847;80;21010;-65
2022/06/16 04:43:28;;;;;;;4.97;2.83;;;;;;;;;;1739754;80;21040;-65
2022/06/16 04:45:56;;;;;;;4.62;2.90;;;;;;;;;;1733572;80;21512;-65
2022/06/16 04:48:25;;;;;;;4.08;3.00;;;;;;;;;;1768205;80;21494;-65
2022/06/16 04:50:52;;;;;;;4.95;2.55;;;;;;;;;;1769942;80;21046;-65
2022/06/16 04:53:20;;;;;;;3.45;2.80;;;;;;;;;;1744013;80;21024;-65
2022/06/16 04:56:04;;;;;;;4.30;2.50;;;;;;;;;;1731475;80;21508;-65
2022/06/16 04:58:47;;;;;;;4.05;2.75;;;;;;;;;;1671113;84;21042;-64
2022/06/16 05:01:30;;;;;;;4.80;2.52;;;;;;;;;;1740547;80;21584;-64
2022/06/16 05:04:10;;;;;;;4.25;2.50;;;;;;;;;;1720212;82;21433;-65
2022/06/16 05:06:41;;;;;;;4.70;2.50;;;;;;;;;;1744426;81;21060;-65
2022/06/16 05:09:11;;;;;;;3.47;2.60;;;;;;;;;;1742670;80;21547;-65
2022/06/16 05:11:42;;;;;;;2.90;2.30;;;;;;;;;;1740713;81;21007;-65
2022/06/16 05:14:20;;;;;;;3.45;2.42;;;;;;;;;;1745672;81;21023;-66
2022/06/16 05:16:54;;;;;;;4.28;2.42;;;;;;;;;;1731610;80;20985;-65
2022/06/16 05:19:34;;;;;;;3.62;2.45;;;;;;;;;;1687459;82;21497;-65
2022/06/16 05:22:05;;;;;;;3.58;2.80;;;;;;;;;;1746947;81;21127;-65
2022/06/16 05:24:51;;;;;;;3.10;2.40;;;;;;;;;;1684685;84;21031;-64
2022/06/16 05:27:20;;;;;;;5.97;2.20;;;;;;;;;;1661511;86;21105;-65
2022/06/16 05:30:02;;;;;;;5.35;2.40;;;;;;;;;;1691976;82;21607;-63
2022/06/16 05:32:42;;;;;;;3.12;2.30;;;;;;;;;;1750701;81;21090;-65
2022/06/16 05:35:11;;;;;;;3.00;2.17;;;;;;;;;;1720248;82;21040;-65
2022/06/16 05:37:40;;;;;;;4.62;2.40;;;;;;;;;;1740990;81;21160;-65
2022/06/16 05:40:25;;;;;;;4.28;2.45;;;;;;;;;;1744929;81;21535;-65
2022/06/16 05:42:56;;;;;;;4.77;2.60;;;;;;;;;;1735994;81;21570;-65
2022/06/16 05:45:41;;;;;;;4.05;2.12;;;;;;;;;;1738279;81;21047;-64
2022/06/16 05:48:13;;;;;;;4.85;2.50;;;;;;;;;;1758734;81;21016;-66
2022/06/16 05:50:42;;;;;;;2.60;2.20;;;;;;;;;;1731667;81;21035;-64
2022/06/16 05:53:10;;;;;;;3.22;2.10;;;;;;;;;;1758014;81;21023;-64
2022/06/16 05:55:41;;;;;;;5.65;2.42;;;;;;;;;;1745768;81;21007;-65
2022/06/16 05:58:08;;;;;;;4.62;2.37;;;;;;;;;;1755353;81;21011;-65
2022/06/16 06:00:39;;;;;;;4.47;2.02;;;;;;;;;;1771037;80;21038;-64
2022/06/16 06:03:07;;;;;;;3.72;2.25;;;;;;;;;;1774107;79;21083;-65
2022/06/16 06:05:36;;;;;;;3.45;2.37;;;;;;;;;;1757443;80;21079;-63
2022/06/16 06:16:37;;;;;;;3.22;2.10;;;;;;;;;;1779834;80;21070;-64
2022/06/16 06:22:03;;;;;;;4.10;2.20;;;;;;;;;;1756482;80;21090;-63
2022/06/16 06:24:31;;;;;;;3.10;2.10;;;;;;;;;;1779840;80;21090;-64
2022/06/16 06:26:59;;;;;;;3.65;2.10;;;;;;;;;;1765525;80;21038;-64
2022/06/16 06:29:27;;;;;;;2.83;1.85;;;;;;;;;;1727789;82;21079;-65
2022/06/16 06:31:53;;;;;;;2.75;2.00;;;;;;;;;;1727561;83;22119;-64
2022/06/16 06:34:19;;;;;;;3.25;1.80;;;;;;;;;;1728070;83;20985;-64
2022/06/16 06:36:47;;;;;;;3.77;2.10;;;;;;;;;;1733796;80;21064;-64
2022/06/16 06:39:13;;;;;;;4.58;2.02;;;;;;;;;;1735237;82;21044;-63
2022/06/16 06:41:39;;;;;;;4.47;2.12;;;;;;;;;;1719322;83;21070;-63
2022/06/16 06:44:05;;;;;;;3.87;1.80;;;;;;;;;;1746067;80;21007;-64
2022/06/16 06:46:32;;;;;;;3.70;1.87;;;;;;;;;;1747614;82;20996;-63
2022/06/16 06:48:58;;;;;;;5.22;2.00;;;;;;;;;;1757828;80;21537;-64
2022/06/16 06:51:26;;;;;;;3.37;2.12;;;;;;;;;;1736318;80;21062;-64
2022/06/16 06:53:52;;;;;;;2.35;1.90;;;;;;;;;;1748244;80;21533;-65
2022/06/16 06:56:18;;;;;;;3.98;2.10;;;;;;;;;;1740581;80;21540;-64
2022/06/16 06:58:44;;;;;;;3.42;2.00;;;;;;;;;;1744009;80;21044;-65
2022/06/16 07:01:10;;;;;;;4.45;2.10;;;;;;;;;;1705554;83;21016;-65
2022/06/16 07:03:36;;;;;;;3.20;1.90;;;;;;;;;;1700260;83;21082;-65
2022/06/16 07:06:03;;;;;;;2.95;2.00;;;;;;;;;;1648001;85;21044;-64
2022/06/16 07:08:30;;;;;;;3.62;2.30;;;;;;;;;;1694439;84;20989;-64
2022/06/16 07:10:55;;;;;;;2.37;2.00;;;;;;;;;;1651003;85;21117;-64
2022/06/16 07:13:23;;;;;;;3.98;2.00;;;;;;;;;;1644647;85;21116;-64
2022/06/16 07:15:50;;;;;;;3.25;2.00;;;;;;;;;;1685052;83;21051;-64
2022/06/16 07:18:17;;;;;;;3.52;2.10;;;;;;;;;;1683818;83;21103;-65
2022/06/16 07:20:43;;;;;;;6.15;2.17;;;;;;;;;;1688895;83;21046;-67
2022/06/16 07:23:11;;;;;;;8.88;2.40;;;;;;;;;;1691389;83;21043;-66
2022/06/16 07:25:37;;;;;;;3.55;1.82;;;;;;;;;;1693584;83;21583;-66
2022/06/16 07:28:04;;;;;;;3.92;2.17;;;;;;;;;;1687673;83;21026;-67
2022/06/16 07:30:32;;;;;;;4.20;2.22;;;;;;;;;;1681753;83;20996;-66
2022/06/16 07:32:59;;;;;;;2.95;1.75;;;;;;;;;;1686050;84;21015;-67
2022/06/16 07:35:26;;;;;;;2.52;1.87;;;;;;;;;;1688223;83;21098;-66
2022/06/16 07:37:52;;;;;;;3.10;1.90;;;;;;;;;;1699953;83;21451;-66
2022/06/16 07:40:18;;;;;;;3.35;2.60;;;;;;;;;;1694769;84;21024;-66
2022/06/16 07:42:45;;;;;;;3.47;2.10;;;;;;;;;;1730182;81;21044;-66
2022/06/16 07:45:11;;;;;;;2.75;2.00;;;;;;;;;;1729418;81;21019;-66
2022/06/16 07:47:39;;;;;;;3.45;2.33;;;;;;;;;;1731729;82;21605;-66
2022/06/16 07:50:08;;;;;;;2.08;1.82;;;;;;;;;;1735722;81;21034;-67
2022/06/16 07:52:37;;;;;;;4.25;1.80;;;;;;;;;;1735206;81;21013;-66
2022/06/16 07:55:04;;;;;;;7.20;3.17;;;;;;;;;;1729987;81;21550;-66
2022/06/16 07:57:34;;;;;;;15.23;2.95;;;;;;;;;;1735173;81;20965;-67
2022/06/16 07:59:58;;;;;;;5.37;2.87;;;;;;;;;;1733529;81;20996;-66
2022/06/16 08:02:25;;;;;;;1.65;1.50;;;;;;;;;;1739279;81;21108;-66
2022/06/16 08:04:52;;;;;;;2.77;1.60;;;;;;;;;;1733712;81;21094;-68
2022/06/16 08:08:54;;;;;;;4.00;1.90;;;;;;;;;;1798744;78;23009;-65
2022/06/16 08:14:05;;;;;;;5.80;2.00;;;;;;;;;;1759641;80;21056;-66
2022/06/16 08:16:33;;;;;;;4.33;2.20;;;;;;;;;;1758112;80;21031;-65
2022/06/16 08:19:00;;;;;;;4.55;1.80;;;;;;;;;;1759500;80;21059;-66
2022/06/16 08:21:26;;;;;;;3.12;1.90;;;;;;;;;;1756506;80;20993;-65
2022/06/16 08:23:53;;;;;;;2.65;1.85;;;;;;;;;;1757653;80;20980;-66
2022/06/16 08:26:19;;;;;;;2.02;1.62;;;;;;;;;;1754693;80;20985;-66
2022/06/16 08:28:46;;;;;;;4.08;1.80;;;;;;;;;;1759948;80;21001;-66
2022/06/16 08:31:12;;;;;;;2.50;1.82;;;;;;;;;;1760291;80;21475;-66
2022/06/16 08:33:39;;;;;;;2.95;1.75;;;;;;;;;;1758141;81;21094;-66
2022/06/16 08:36:07;;;;;;;9.35;7.33;;;;;;;;;;1758589;80;21092;-66
2022/06/16 08:38:33;;;;;;;39.50;22.93;;;;;;;;;;1760244;81;21032;-66
2022/06/16 08:41:11;;;;;;;16.10;13.13;;;;;;;;;;1758226;81;21040;-67
2022/06/16 08:43:29;;;;;;;6.30;3.67;;;;;;;;;;1761953;80;20993;-67
2022/06/16 08:45:57;;;;;;;13.03;9.40;;;;;;;;;;1760306;80;21470;-68
2022/06/16 08:48:28;;;;;;;13.68;12.28;;;;;;;;;;1735311;81;21050;-67
2022/06/16 08:50:55;;;;;;;5.47;3.98;;;;;;;;;;1759330;80;21083;-66
2022/06/16 08:53:30;;;;;;;3.30;2.20;;;;;;;;;;1759755;80;21433;-71
2022/06/16 08:56:10;;;;;;;2.87;1.90;;;;;;;;;;1763610;80;21067;-69
2022/06/16 08:58:44;;;;;;;2.17;1.80;;;;;;;;;;1760350;81;22067;-69
2022/06/16 09:01:12;;;;;;;2.40;1.70;;;;;;;;;;1753676;80;21083;-71
2022/06/16 09:03:40;;;;;;;2.12;1.70;;;;;;;;;;1756877;81;21080;-70
2022/06/16 09:06:27;;;;;;;2.08;1.87;;;;;;;;;;1755129;80;21931;-70
2022/06/16 09:09:04;;;;;;;2.27;1.90;;;;;;;;;;1749573;82;21065;-69
2022/06/16 09:11:48;;;;;;;2.35;1.80;;;;;;;;;;1751220;80;21127;-70
2022/06/16 09:15:10;;;;;;;2.85;1.60;;;;;;;;;;1724224;80;21067;-68
2022/06/16 09:16:54;;;;;;;3.45;1.80;;;;;;;;;;1743665;80;21043;-69
2022/06/16 09:19:31;;;;;;;1.62;1.42;;;;;;;;;;1745728;82;21008;-68
2022/06/16 09:22:05;;;;;;;3.27;1.60;;;;;;;;;;1737224;82;21100;-68
2022/06/16 09:24:40;;;;;;;4.58;1.85;;;;;;;;;;1736385;82;21096;-70
2022/06/16 09:27:07;;;;;;;3.33;1.80;;;;;;;;;;1749491;82;21099;-66
2022/06/16 09:29:43;;;;;;;1.75;1.60;;;;;;;;;;1746376;82;21484;-68
2022/06/16 09:32:11;;;;;;;2.92;1.80;;;;;;;;;;1748114;80;21012;-68
2022/06/16 09:34:42;;;;;;;3.25;1.65;;;;;;;;;;1745003;82;21056;-67
2022/06/16 09:37:13;;;;;;;3.75;1.92;;;;;;;;;;1710039;84;21064;-67
2022/06/16 09:39:40;;;;;;;2.15;1.80;;;;;;;;;;1702472;84;21095;-68
2022/06/16 09:44:55;;;;;;;37.17;33.13;;;;;;;;;;1669374;85;21008;-69
2022/06/16 09:47:24;;;;;;;19.57;15.95;;;;;;;;;;1697794;84;21067;-69
2022/06/16 09:49:52;;;;;;;4.75;3.30;;;;;;;;;;1697366;84;21037;-72
2022/06/16 09:52:35;;;;;;;2.62;1.87;;;;;;;;;;1697958;84;21112;-70
2022/06/16 09:55:04;;;;;;;2.67;1.55;;;;;;;;;;1694864;83;21053;-69
2022/06/16 09:57:35;;;;;;;2.92;1.87;;;;;;;;;;1694761;84;21081;-69
2022/06/16 10:00:02;;;;;;;2.33;1.60;;;;;;;;;;1695489;84;21045;-70
2022/06/16 10:02:35;;;;;;;2.33;1.72;;;;;;;;;;1693473;84;21116;-69
2022/06/16 10:05:01;;;;;;;4.03;1.72;;;;;;;;;;1697916;84;21059;-70
2022/06/16 10:07:34;;;;;;;5.05;1.60;;;;;;;;;;1697549;83;21091;-71
2022/06/16 10:10:17;;;;;;;2.87;1.90;;;;;;;;;;1671679;84;21053;-68
2022/06/16 10:12:52;;;;;;;3.17;1.70;;;;;;;;;;1693429;84;21052;-70
2022/06/16 10:15:20;;;;;;;2.55;1.77;;;;;;;;;;1698031;84;21044;-70
2022/06/16 10:17:48;;;;;;;5.90;1.65;;;;;;;;;;1694637;84;21571;-71
2022/06/16 10:20:15;;;;;;;4.00;1.67;;;;;;;;;;1696551;84;21057;-68
2022/06/16 10:22:43;;;;;;;5.10;1.90;;;;;;;;;;1694170;84;21044;-68
2022/06/16 10:25:11;;;;;;;2.22;1.70;;;;;;;;;;1695994;83;21055;-66
2022/06/16 10:27:44;;;;;;;4.83;1.90;;;;;;;;;;1697472;83;21072;-67
2022/06/16 10:30:21;;;;;;;1.82;1.70;;;;;;;;;;1699206;84;21032;-68
2022/06/16 10:33:00;;;;;;;1.92;1.70;;;;;;;;;;1697715;84;21107;-69
2022/06/16 10:35:26;;;;;;;2.62;1.60;;;;;;;;;;1696312;84;21059;-69
2022/06/16 10:37:52;;;;;;;4.85;1.90;;;;;;;;;;1697914;84;21112;-68
2022/06/16 10:40:21;;;;;;;2.35;1.70;;;;;;;;;;1696760;84;21092;-69
2022/06/16 10:42:48;;;;;;;3.00;1.67;;;;;;;;;;1668747;84;21103;-68
2022/06/16 10:45:15;;;;;;;2.80;1.70;;;;;;;;;;1693963;84;21525;-68
2022/06/16 10:47:53;;;;;;;5.03;1.85;;;;;;;;;;1694090;84;21010;-69
2022/06/16 10:50:25;;;;;;;2.42;2.00;;;;;;;;;;1693446;84;21596;-67
2022/06/16 10:52:53;;;;;;;3.85;1.60;;;;;;;;;;1697865;84;21032;-68
2022/06/16 10:55:21;;;;;;;2.50;1.60;;;;;;;;;;1692378;84;22227;-68
2022/06/16 10:57:51;;;;;;;2.12;1.70;;;;;;;;;;1695272;84;21044;-66
2022/06/16 11:00:20;;;;;;;2.42;1.52;;;;;;;;;;1694866;84;21071;-67
2022/06/16 11:02:54;;;;;;;1.72;1.47;;;;;;;;;;1696821;84;21567;-67
2022/06/16 11:05:21;;;;;;;2.98;1.50;;;;;;;;;;1696139;84;21091;-67
2022/06/16 11:07:47;;;;;;;2.70;1.60;;;;;;;;;;1692765;84;21521;-67
2022/06/16 11:10:16;;;;;;;2.55;1.72;;;;;;;;;;1685500;85;21529;-67
2022/06/16 11:12:45;;;;;;;1.98;1.50;;;;;;;;;;1685199;85;21055;-67
2022/06/16 11:15:19;;;;;;;3.60;1.65;;;;;;;;;;1692240;85;21040;-67
2022/06/16 11:17:47;;;;;;;3.55;1.57;;;;;;;;;;1691679;83;21142;-67
2022/06/16 11:20:16;;;;;;;3.30;1.87;;;;;;;;;;1692965;83;21552;-66
2022/06/16 11:22:43;;;;;;;2.95;1.82;;;;;;;;;;1690937;84;21055;-66
2022/06/16 11:25:30;;;;;;;1.67;1.45;;;;;;;;;;1697314;84;21106;-66
2022/06/16 11:28:01;;;;;;;3.40;1.42;;;;;;;;;;1693173;84;21124;-66
2022/06/16 11:30:29;;;;;;;4.00;1.50;;;;;;;;;;1692894;85;21104;-67
2022/06/16 11:32:55;;;;;;;2.80;1.70;;;;;;;;;;1692683;85;21112;-67
2022/06/16 11:35:23;;;;;;;1.87;1.32;;;;;;;;;;1692912;85;21098;-67
2022/06/16 11:37:53;;;;;;;1.70;1.52;;;;;;;;;;1663127;85;21124;-69
2022/06/16 11:40:23;;;;;;;2.15;1.52;;;;;;;;;;1665942;85;21505;-70
2022/06/16 11:42:53;;;;;;;2.08;1.67;;;;;;;;;;1655615;85;21600;-70
2022/06/16 11:45:24;;;;;;;2.40;1.65;;;;;;;;;;1659920;85;21044;-69
2022/06/16 11:48:10;;;;;;;2.15;1.50;;;;;;;;;;1641766;86;21720;-71
2022/06/16 11:50:55;;;;;;;1.72;1.32;;;;;;;;;;1692105;84;21614;-69
2022/06/16 11:53:32;;;;;;;2.52;1.70;;;;;;;;;;1689724;85;21524;-68
2022/06/16 11:56:09;;;;;;;2.33;1.40;;;;;;;;;;1692712;84;21409;-69
2022/06/16 11:58:52;;;;;;;1.42;1.32;;;;;;;;;;1692147;84;21088;-70
2022/06/16 12:01:21;;;;;;;2.50;1.80;;;;;;;;;;1689071;84;21083;-70
2022/06/16 12:04:06;;;;;;;3.08;1.67;;;;;;;;;;1692617;84;21041;-68
2022/06/16 12:06:51;;;;;;;2.72;1.60;;;;;;;;;;1695902;83;21197;-71
2022/06/16 12:09:23;;;;;;;3.10;2.30;;;;;;;;;;1696725;84;21091;-71
2022/06/16 12:12:09;;;;;;;2.17;1.52;;;;;;;;;;1640549;86;21546;-72
2022/06/16 12:14:54;;;;;;;1.30;1.25;;;;;;;;;;1698728;83;21052;-73
2022/06/16 12:17:37;;;;;;;1.50;1.40;;;;;;;;;;1692016;83;21104;-69
2022/06/16 12:20:12;;;;;;;3.33;1.70;;;;;;;;;;1743314;81;21071;-70
2022/06/16 12:22:47;;;;;;;2.95;1.50;;;;;;;;;;1736781;82;21072;-72
2022/06/16 12:25:17;;;;;;;1.98;1.45;;;;;;;;;;1739081;81;21104;-72
2022/06/16 12:27:45;;;;;;;2.77;1.60;;;;;;;;;;1740569;81;20977;-71
2022/06/16 12:30:19;;;;;;;2.50;1.70;;;;;;;;;;1741805;81;21076;-71
2022/06/16 12:32:51;;;;;;;4.33;1.75;;;;;;;;;;1738916;81;21133;-72
2022/06/16 12:35:22;;;;;;;1.65;1.40;;;;;;;;;;1740089;81;21583;-71
2022/06/16 12:38:07;;;;;;;2.75;1.70;;;;;;;;;;1741443;81;21056;-71
2022/06/16 12:40:38;;;;;;;1.70;1.40;;;;;;;;;;1684569;84;21085;-69
2022/06/16 12:43:06;;;;;;;2.50;1.67;;;;;;;;;;1694545;83;21073;-68
2022/06/16 12:45:37;;;;;;;1.67;1.40;;;;;;;;;;1700448;83;21781;-68
2022/06/16 12:48:05;;;;;;;1.95;1.40;;;;;;;;;;1740714;82;21112;-69
2022/06/16 12:50:39;;;;;;;1.72;1.52;;;;;;;;;;1740839;81;21048;-70
2022/06/16 12:53:07;;;;;;;10.25;2.15;;;;;;;;;;1754086;81;21037;-69
2022/06/16 12:55:38;;;;;;;2.30;1.37;;;;;;;;;;1744442;81;21079;-69
2022/06/16 12:58:06;;;;;;;1.72;1.47;;;;;;;;;;1734637;81;21158;-69
2022/06/16 13:00:34;;;;;;;3.42;1.52;;;;;;;;;;1749183;81;21514;-68
2022/06/16 13:03:08;;;;;;;5.65;1.98;;;;;;;;;;1741398;81;21163;-68
2022/06/16 13:05:34;;;;;;;2.50;1.77;;;;;;;;;;1735605;82;21026;-68
2022/06/16 13:08:02;;;;;;;8.18;2.20;;;;;;;;;;1742709;80;21052;-68
2022/06/16 13:10:33;;;;;;;2.70;1.70;;;;;;;;;;1746044;81;21016;-68
2022/06/16 13:13:00;;;;;;;3.65;1.60;;;;;;;;;;1733702;81;21021;-67
2022/06/16 13:15:34;;;;;;;4.20;1.85;;;;;;;;;;1738303;81;21056;-68
2022/06/16 13:18:15;;;;;;;2.30;1.50;;;;;;;;;;1761569;81;21049;-69
2022/06/16 13:20:43;;;;;;;2.85;1.60;;;;;;;;;;1746830;80;21081;-67
2022/06/16 13:23:12;;;;;;;2.75;1.62;;;;;;;;;;1741511;81;21063;-67
2022/06/16 13:25:46;;;;;;;1.67;1.50;;;;;;;;;;1744918;81;20997;-67
2022/06/16 13:28:16;;;;;;;2.77;1.62;;;;;;;;;;1744767;80;21103;-67
2022/06/16 13:30:44;;;;;;;2.22;1.67;;;;;;;;;;1737817;82;21067;-68
2022/06/16 13:33:12;;;;;;;3.92;1.52;;;;;;;;;;1739271;81;21071;-66
2022/06/16 13:35:41;;;;;;;3.45;1.47;;;;;;;;;;1758796;81;21581;-64
2022/06/16 13:38:10;;;;;;;2.37;1.30;;;;;;;;;;1744425;81;21575;-64
2022/06/16 13:40:39;;;;;;;2.00;1.55;;;;;;;;;;1758983;81;21080;-64
2022/06/16 13:43:08;;;;;;;4.83;1.90;;;;;;;;;;1742440;82;21119;-64
2022/06/16 13:45:36;;;;;;;3.25;1.65;;;;;;;;;;1737776;81;21053;-65
2022/06/16 13:48:14;;;;;;;5.45;1.50;;;;;;;;;;1740431;81;21053;-64
2022/06/16 13:50:49;;;;;;;3.25;1.70;;;;;;;;;;1741239;81;21512;-64
2022/06/16 13:53:29;;;;;;;3.42;1.65;;;;;;;;;;1733850;82;21053;-65
2022/06/16 13:56:06;;;;;;;4.05;1.60;;;;;;;;;;1714156;83;21064;-64
2022/06/16 13:58:33;;;;;;;18.32;5.90;;;;;;;;;;1732620;81;21580;-64
2022/06/16 14:01:01;;;;;;;3.22;2.40;;;;;;;;;;1730761;82;21104;-64
2022/06/16 14:03:28;;;;;;;1.70;1.50;;;;;;;;;;1703071;82;21013;-65
2022/06/16 14:05:56;;;;;;;3.08;1.70;;;;;;;;;;1713418;82;21115;-65
2022/06/16 14:08:23;;;;;;;4.97;1.90;;;;;;;;;;1739539;82;21504;-65
2022/06/16 14:10:50;;;;;;;5.20;1.70;;;;;;;;;;1745913;80;21020;-64
2022/06/16 14:13:19;;;;;;;2.55;1.40;;;;;;;;;;1753478;80;21040;-65
2022/06/16 14:16:03;;;;;;;4.72;1.57;;;;;;;;;;1749709;80;21084;-66
2022/06/16 14:18:29;;;;;;;;;;;;;;;;;;1742761;81;21047;-67
2022/06/16 14:20:57;;;;;;;1.70;1.50;;;;;;;;;;1745152;80;20650;-67
2022/06/16 14:23:24;;;;;;;2.87;1.60;;;;;;;;;;1752974;80;21021;-67
2022/06/16 14:25:53;;;;;;;1.82;1.50;;;;;;;;;;1711711;82;21584;-66
2022/06/16 14:28:21;;;;;;;3.95;1.57;;;;;;;;;;1746949;80;21571;-66
2022/06/16 14:30:51;;;;;;;3.30;1.62;;;;;;;;;;1740506;80;21014;-66
2022/06/16 14:33:19;;;;;;;2.87;1.80;;;;;;;;;;1747190;80;21088;-66
2022/06/16 14:35:47;;;;;;;2.25;1.60;;;;;;;;;;1753113;80;20962;-66
2022/06/16 14:38:16;;;;;;;1.90;1.50;;;;;;;;;;1760926;80;21033;-66
2022/06/16 14:40:47;;;;;;;1.60;1.50;;;;;;;;;;1742785;82;21073;-67
2022/06/16 14:43:21;;;;;;;3.00;1.60;;;;;;;;;;1764375;80;21040;-66
2022/06/16 14:45:55;;;;;;;2.72;1.70;;;;;;;;;;1754645;80;21527;-66
2022/06/16 14:48:23;;;;;;;2.02;1.57;;;;;;;;;;1767159;80;21060;-66
2022/06/16 14:50:50;;;;;;;5.08;1.85;;;;;;;;;;1742633;82;21083;-66
2022/06/16 14:53:24;;;;;;;6.28;1.52;;;;;;;;;;1740073;80;21037;-65
2022/06/16 14:55:51;;;;;;;1.92;1.30;;;;;;;;;;1743919;80;21008;-66
2022/06/16 14:58:19;;;;;;;1.98;1.67;;;;;;;;;;1746230;80;21025;-67
2022/06/16 15:00:50;;;;;;;137.88;77.30;;;;;;;;;;1750176;80;21044;-66
2022/06/16 15:03:18;;;;;;;25.60;17.37;;;;;;;;;;1731469;81;21068;-65
2022/06/16 15:05:45;;;;;;;12.40;9.95;;;;;;;;;;1714757;81;21011;-65
2022/06/16 15:08:17;;;;;;;17.80;11.83;;;;;;;;;;1724260;81;20978;-65
2022/06/16 15:10:43;;;;;;;33.42;21.20;;;;;;;;;;1728462;82;21024;-66
2022/06/16 15:13:09;;;;;;;11.65;5.78;;;;;;;;;;1730849;81;21032;-67
2022/06/16 15:15:36;;;;;;;4.65;3.33;;;;;;;;;;1728230;81;21531;-67
2022/06/16 15:18:11;;;;;;;3.00;1.92;;;;;;;;;;1731138;81;21018;-68
2022/06/16 15:20:46;;;;;;;7.42;2.80;;;;;;;;;;1706230;83;21023;-65
2022/06/16 15:23:13;;;;;;;3.90;2.02;;;;;;;;;;1731062;81;21068;-66
2022/06/16 15:25:41;;;;;;;3.70;2.27;;;;;;;;;;1729575;81;21064;-66
2022/06/16 15:28:11;;;;;;;4.08;2.15;;;;;;;;;;1728092;81;21076;-68